Time;durP1;ratioP1;P1;durP2;ratioP2;P2;SDS_P1;SDS_P2;PMS_P1;PMS_P2;Temp;Humidity;BMP_temperature;BMP_pressure;BME280_temperature;BME280_humidity;BME280_pressure;Samples;Min_cycle;Max_cycle;Signal;HPM_P1;HPM_P2
2022/03/08 00:00:58;;;;;;;20.20;14.20;;;;;;;;;;4996705;28;20445;-91
2022/03/08 00:03:25;;;;;;;21.80;13.13;;;;;;;;;;4999601;28;20930;-90
2022/03/08 00:05:52;;;;;;;19.57;13.10;;;;;;;;;;4996312;28;20449;-92
2022/03/08 00:08:20;;;;;;;22.70;14.00;;;;;;;;;;4996538;28;20456;-92
2022/03/08 00:10:48;;;;;;;20.70;13.30;;;-2.60;99.30;;;;;;4995522;28;20817;-92
2022/03/08 00:13:15;;;;;;;18.53;12.80;;;;;;;;;;4997764;28;20453;-92
2022/03/08 00:15:42;;;;;;;21.13;12.87;;;;;;;;;;4997590;28;20493;-89
2022/03/08 00:18:10;;;;;;;17.23;12.07;;;;;;;;;;4994309;28;20445;-93
2022/03/08 00:20:38;;;;;;;21.03;14.20;;;;;;;;;;4992649;28;20493;-88
2022/03/08 00:23:05;;;;;;;20.00;12.27;;;;;;;;;;4997783;28;20457;-89
2022/03/08 00:25:32;;;;;;;22.43;12.50;;;;;;;;;;4993654;28;20511;-93
2022/03/08 00:28:01;;;;;;;17.90;12.30;;;;;;;;;;4997206;28;20453;-91
2022/03/08 00:30:29;;;;;;;22.50;13.07;;;-2.70;99.90;;;;;;4991875;28;20450;-88
2022/03/08 00:32:57;;;;;;;20.40;12.60;;;;;;;;;;4994647;28;20448;-91
2022/03/08 00:35:26;;;;;;;17.30;11.47;;;-2.80;99.90;;;;;;4995338;28;20567;-88
2022/03/08 00:37:55;;;;;;;20.20;11.80;;;-2.80;99.90;;;;;;4996652;28;20460;-92
2022/03/08 00:40:24;;;;;;;20.67;12.33;;;-2.90;99.90;;;;;;4992979;28;20477;-90
2022/03/08 00:42:51;;;;;;;18.77;11.93;;;;;;;;;;5001843;28;20445;-89
2022/03/08 00:45:20;;;;;;;20.70;12.10;;;;;;;;;;5004740;28;20464;-91
2022/03/08 00:47:47;;;;;;;14.83;10.47;;;-3.10;99.90;;;;;;5005185;28;20453;-89
2022/03/08 00:50:17;;;;;;;24.07;12.57;;;-3.00;99.90;;;;;;4998394;28;20449;-92
2022/03/08 00:52:44;;;;;;;20.30;11.83;;;;;;;;;;4996769;28;20408;-91
2022/03/08 00:55:13;;;;;;;22.90;12.70;;;-3.00;99.90;;;;;;4996103;28;20445;-92
2022/03/08 00:57:40;;;;;;;24.00;12.10;;;;;;;;;;4993926;28;20520;-90
2022/03/08 01:00:11;;;;;;;20.40;11.10;;;-3.10;99.90;;;;;;4991969;28;20450;-91
2022/03/08 01:02:39;;;;;;;19.00;11.20;;;;;;;;;;4994109;28;20442;-90
2022/03/08 01:05:07;;;;;;;18.60;11.20;;;;;;;;;;4989277;28;20476;-91
2022/03/08 01:07:34;;;;;;;16.90;11.67;;;;;;;;;;4996559;28;20452;-88
2022/03/08 01:10:02;;;;;;;14.90;10.10;;;;;;;;;;4996484;28;20820;-90
2022/03/08 01:12:29;;;;;;;18.33;10.70;;;;;;;;;;4993949;28;20776;-92
2022/03/08 01:14:56;;;;;;;15.80;9.70;;;;;;;;;;4993524;28;20484;-91
2022/03/08 01:17:24;;;;;;;18.50;10.13;;;;;;;;;;4997863;28;20492;-91
2022/03/08 01:19:53;;;;;;;16.67;10.77;;;;;;;;;;5000648;28;20441;-94
2022/03/08 01:22:20;;;;;;;16.07;9.97;;;;;;;;;;5017138;28;20462;-91
2022/03/08 01:24:48;;;;;;;20.13;10.77;;;;;;;;;;4999824;28;20930;-88
2022/03/08 01:27:15;;;;;;;16.53;10.23;;;;;;;;;;4994041;28;20449;-92
2022/03/08 01:29:42;;;;;;;17.67;10.53;;;;;;;;;;4996554;28;20449;-90
2022/03/08 01:32:10;;;;;;;15.77;10.60;;;-2.60;99.90;;;;;;4991957;28;20960;-90
2022/03/08 01:34:37;;;;;;;14.77;10.20;;;;;;;;;;4992441;28;20449;-89
2022/03/08 01:37:06;;;;;;;17.83;10.00;;;;;;;;;;4995112;28;20497;-91
2022/03/08 01:39:34;;;;;;;15.77;9.37;;;;;;;;;;4990102;28;20485;-89
2022/03/08 01:42:08;;;;;;;18.67;11.10;;;-3.30;99.90;;;;;;4994914;28;20453;-89
2022/03/08 01:44:35;;;;;;;17.33;10.77;;;;;;;;;;4992044;28;20979;-87
2022/03/08 01:47:02;;;;;;;17.63;10.30;;;;;;;;;;4995123;28;20467;-89
2022/03/08 01:49:29;;;;;;;17.10;9.50;;;;;;;;;;4995679;28;20427;-90
2022/03/08 01:51:56;;;;;;;17.77;10.90;;;;;;;;;;4995433;28;20445;-90
2022/03/08 01:54:25;;;;;;;19.43;12.10;;;-3.50;99.90;;;;;;4994645;28;20477;-91
2022/03/08 01:56:52;;;;;;;18.90;11.63;;;;;;;;;;4988638;28;20478;-93
2022/03/08 01:59:19;;;;;;;17.70;11.50;;;;;;;;;;4994726;28;20461;-90
2022/03/08 02:01:46;;;;;;;21.40;11.17;;;;;;;;;;4994696;28;20449;-90
2022/03/08 02:04:13;;;;;;;20.00;12.57;;;;;;;;;;4994618;28;20461;-95
2022/03/08 02:06:41;;;;;;;18.10;11.40;;;;;;;;;;4992970;28;20972;-90
2022/03/08 02:09:08;;;;;;;18.43;11.30;;;;;;;;;;4994603;28;20818;-89
2022/03/08 02:11:37;;;;;;;20.10;11.33;;;-3.60;99.90;;;;;;4990533;28;20504;-89
2022/03/08 02:14:04;;;;;;;15.70;9.90;;;;;;;;;;4994301;28;20427;-87
2022/03/08 02:16:31;;;;;;;17.93;11.07;;;;;;;;;;4994642;28;20501;-89
2022/03/08 02:18:59;;;;;;;18.47;10.00;;;;;;;;;;4991218;28;20468;-90
2022/03/08 02:21:28;;;;;;;18.23;10.80;;;-3.70;99.90;;;;;;4994566;28;20449;-89
2022/03/08 02:23:55;;;;;;;15.00;9.80;;;;;;;;;;4989572;28;20979;-89
2022/03/08 02:26:22;;;;;;;18.30;10.87;;;;;;;;;;4990331;28;20457;-89
2022/03/08 02:28:51;;;;;;;17.73;10.40;;;;;;;;;;4994358;28;20453;-87
2022/03/08 02:31:18;;;;;;;21.20;11.90;;;;;;;;;;4991511;28;20437;-92
2022/03/08 02:33:45;;;;;;;15.10;10.53;;;;;;;;;;4994460;28;20456;-90
2022/03/08 02:36:12;;;;;;;14.73;9.77;;;;;;;;;;4994012;28;21019;-88
2022/03/08 02:38:41;;;;;;;18.30;10.93;;;-3.90;99.90;;;;;;4994517;28;20441;-90
2022/03/08 02:41:08;;;;;;;19.03;10.40;;;;;;;;;;4993271;28;20548;-89
2022/03/08 02:43:35;;;;;;;23.37;12.43;;;;;;;;;;4994478;28;20799;-91
2022/03/08 02:46:03;;;;;;;19.57;11.70;;;;;;;;;;4991105;28;20461;-88
2022/03/08 02:48:31;;;;;;;19.77;10.57;;;-3.90;99.90;;;;;;4993984;28;20952;-88
2022/03/08 02:50:59;;;;;;;16.97;10.03;;;;;;;;;;4997270;28;20453;-90
2022/03/08 02:53:26;;;;;;;19.40;12.30;;;;;;;;;;4995026;28;20460;-89
2022/03/08 02:55:55;;;;;;;19.80;10.90;;;;;;;;;;4993387;28;20452;-88
2022/03/08 02:58:22;;;;;;;18.40;9.13;;;;;;;;;;4998084;28;20461;-89
2022/03/08 03:00:49;;;;;;;18.07;10.07;;;;;;;;;;4998079;28;20457;-93
2022/03/08 03:03:16;;;;;;;15.07;9.53;;;;;;;;;;4998021;28;20458;-89
2022/03/08 03:05:44;;;;;;;19.67;9.43;;;;;;;;;;4997730;28;20437;-93
2022/03/08 03:08:11;;;;;;;20.07;11.00;;;;;;;;;;4994553;28;20540;-88
2022/03/08 03:10:39;;;;;;;19.67;10.60;;;;;;;;;;4996707;28;20441;-90
2022/03/08 03:13:08;;;;;;;18.67;10.50;;;;;;;;;;4997871;28;20572;-91
2022/03/08 03:15:35;;;;;;;18.90;10.60;;;;;;;;;;4994492;28;20457;-92
2022/03/08 03:18:02;;;;;;;16.83;10.67;;;;;;;;;;4997496;28;20508;-87
2022/03/08 03:20:30;;;;;;;17.60;10.80;;;;;;;;;;4997475;28;20449;-91
2022/03/08 03:22:57;;;;;;;17.83;10.53;;;;;;;;;;4997528;28;20805;-88
2022/03/08 03:25:24;;;;;;;19.73;11.53;;;;;;;;;;4996518;28;20468;-91
2022/03/08 03:27:51;;;;;;;17.27;10.90;;;;;;;;;;4992740;28;20449;-88
2022/03/08 03:30:20;;;;;;;18.57;10.93;;;-4.20;99.90;;;;;;4997185;28;20814;-91
2022/03/08 03:32:47;;;;;;;18.03;9.80;;;;;;;;;;4997320;28;20936;-90
2022/03/08 03:35:15;;;;;;;18.47;10.00;;;-4.30;99.90;;;;;;4997292;28;20444;-93
2022/03/08 03:37:43;;;;;;;20.03;10.57;;;-4.30;99.90;;;;;;4993079;28;20496;-89
2022/03/08 03:40:11;;;;;;;20.70;11.50;;;-4.30;99.90;;;;;;4993240;28;20489;-88
2022/03/08 03:42:38;;;;;;;18.90;10.87;;;;;;;;;;4937171;29;20448;-92
2022/03/08 03:45:07;;;;;;;20.40;11.53;;;-4.30;99.90;;;;;;4937251;29;20452;-89
2022/03/08 03:47:35;;;;;;;17.23;10.60;;;-4.30;99.90;;;;;;4936961;29;20797;-89
2022/03/08 03:50:03;;;;;;;14.10;9.60;;;;;;;;;;4934398;29;20444;-92
2022/03/08 03:52:30;;;;;;;14.47;8.40;;;;;;;;;;4934644;29;20468;-91
2022/03/08 03:55:02;;;;;;;15.00;8.00;;;;;;;;;;4936045;29;20832;-92
2022/03/08 03:57:29;;;;;;;16.70;9.27;;;;;;;;;;4937213;29;20499;-93
2022/03/08 03:59:56;;;;;;;15.97;9.70;;;;;;;;;;4945813;28;20445;-92
2022/03/08 04:02:24;;;;;;;16.30;10.57;;;;;;;;;;4996008;28;20449;-91
2022/03/08 04:04:52;;;;;;;15.23;8.43;;;-4.50;99.90;;;;;;4996664;28;20804;-88
2022/03/08 04:07:19;;;;;;;16.80;9.60;;;;;;;;;;4996378;28;20818;-90
2022/03/08 04:09:46;;;;;;;16.63;9.60;;;;;;;;;;4995667;28;21236;-91
2022/03/08 04:12:14;;;;;;;18.50;9.77;;;;;;;;;;4996546;28;20461;-87
2022/03/08 04:14:41;;;;;;;21.27;9.63;;;;;;;;;;4996581;28;20445;-88
2022/03/08 04:17:08;;;;;;;14.63;9.23;;;;;;;;;;4992544;28;20556;-93
2022/03/08 04:19:35;;;;;;;16.00;9.70;;;;;;;;;;4996396;28;20449;-86
2022/03/08 04:22:04;;;;;;;13.13;9.10;;;-4.60;99.90;;;;;;4996489;28;20453;-92
2022/03/08 04:24:32;;;;;;;15.07;9.87;;;;;;;;;;4991797;28;20420;-88
2022/03/08 04:26:59;;;;;;;24.73;10.00;;;;;;;;;;4996536;28;20463;-88
2022/03/08 04:29:26;;;;;;;16.50;9.80;;;;;;;;;;4996079;28;20460;-92
2022/03/08 04:31:53;;;;;;;17.33;10.93;;;;;;;;;;4996137;28;20432;-87
2022/03/08 04:34:21;;;;;;;17.10;9.90;;;-4.60;99.90;;;;;;4991456;28;20467;-91
2022/03/08 04:36:48;;;;;;;14.50;9.73;;;;;;;;;;4995917;28;20497;-87
2022/03/08 04:39:16;;;;;;;15.30;9.87;;;-4.80;99.90;;;;;;4995854;28;20452;-88
2022/03/08 04:41:44;;;;;;;14.80;8.53;;;-4.50;99.90;;;;;;4991794;28;20456;-90
2022/03/08 04:44:11;;;;;;;13.10;9.20;;;;;;;;;;4996123;28;20452;-87
2022/03/08 04:46:38;;;;;;;16.10;9.37;;;;;;;;;;4961744;28;20485;-92
2022/03/08 04:49:05;;;;;;;13.50;8.03;;;;;;;;;;4995843;28;20456;-88
2022/03/08 04:51:32;;;;;;;15.63;9.10;;;;;;;;;;4995965;28;20451;-89
2022/03/08 04:53:59;;;;;;;20.90;9.77;;;;;;;;;;4995652;28;20460;-91
2022/03/08 04:56:28;;;;;;;13.43;8.87;;;-4.60;99.90;;;;;;4994355;28;20442;-87
2022/03/08 04:58:56;;;;;;;13.40;8.37;;;;;;;;;;4995604;28;20424;-88
2022/03/08 05:01:23;;;;;;;14.90;8.20;;;;;;;;;;4992692;28;20461;-88
2022/03/08 05:03:50;;;;;;;13.57;8.40;;;;;;;;;;4995550;28;20456;-93
2022/03/08 05:06:18;;;;;;;10.83;7.33;;;;;;;;;;4995631;28;20453;-90
2022/03/08 05:08:45;;;;;;;15.47;8.70;;;;;;;;;;4991888;28;20964;-87
2022/03/08 05:11:12;;;;;;;13.47;8.83;;;;;;;;;;4994303;28;20453;-89
2022/03/08 05:13:40;;;;;;;16.13;8.70;;;-4.50;99.90;;;;;;4995322;28;20454;-89
2022/03/08 05:16:07;;;;;;;13.90;8.13;;;;;;;;;;4995058;28;20445;-92
2022/03/08 05:18:34;;;;;;;15.20;9.00;;;;;;;;;;4995147;28;20493;-90
2022/03/08 05:21:01;;;;;;;11.97;8.00;;;;;;;;;;4995488;28;20464;-93
2022/03/08 05:23:28;;;;;;;12.70;7.83;;;;;;;;;;4995353;28;20937;-92
2022/03/08 05:25:56;;;;;;;14.93;9.23;;;;;;;;;;4994065;28;20453;-94
2022/03/08 05:28:23;;;;;;;14.80;8.17;;;;;;;;;;4992374;28;20449;-88
2022/03/08 05:30:51;;;;;;;18.37;8.17;;;;;;;;;;4995063;28;20424;-89
2022/03/08 05:33:18;;;;;;;10.80;7.33;;;;;;;;;;4995057;28;20944;-93
2022/03/08 05:35:46;;;;;;;8.50;6.07;;;;;;;;;;4994898;28;20925;-89
2022/03/08 05:38:13;;;;;;;11.90;7.57;;;;;;;;;;4994932;28;20493;-88
2022/03/08 05:40:40;;;;;;;7.30;5.70;;;;;;;;;;4990965;28;20481;-93
2022/03/08 05:43:07;;;;;;;17.83;5.67;;;;;;;;;;4994997;28;20499;-90
2022/03/08 05:45:35;;;;;;;10.67;6.70;;;;;;;;;;4994639;28;20941;-91
2022/03/08 05:48:03;;;;;;;9.80;5.50;;;-4.10;99.90;;;;;;4994827;28;20455;-91
2022/03/08 05:50:30;;;;;;;7.60;5.23;;;;;;;;;;4994643;28;20456;-89
2022/03/08 05:52:58;;;;;;;10.80;5.20;;;;;;;;;;4991352;28;20465;-88
2022/03/08 05:55:25;;;;;;;10.23;5.60;;;;;;;;;;4993641;28;20442;-87
2022/03/08 05:57:52;;;;;;;11.90;6.13;;;;;;;;;;4994703;28;20478;-90
2022/03/08 06:00:19;;;;;;;10.60;5.67;;;;;;;;;;4991729;28;20428;-90
2022/03/08 06:02:47;;;;;;;9.77;6.30;;;;;;;;;;4990838;28;20456;-92
2022/03/08 06:05:15;;;;;;;8.20;5.50;;;-3.40;99.90;;;;;;4994779;28;20804;-89
2022/03/08 06:07:42;;;;;;;9.83;6.57;;;;;;;;;;4994278;28;20453;-87
2022/03/08 06:10:10;;;;;;;8.50;5.23;;;-3.30;99.90;;;;;;4993487;28;20453;-90
2022/03/08 06:12:38;;;;;;;11.00;5.90;;;;;;;;;;4994631;28;20456;-87
2022/03/08 06:15:06;;;;;;;11.40;6.27;;;-2.80;99.90;;;;;;4994770;28;20968;-94
2022/03/08 06:17:33;;;;;;;9.60;5.80;;;;;;;;;;4994636;28;20485;-90
2022/03/08 06:20:00;;;;;;;9.77;6.60;;;;;;;;;;4994851;28;20813;-90
2022/03/08 06:22:29;;;;;;;9.37;5.83;;;-1.60;99.90;;;;;;4994521;28;20457;-93
2022/03/08 06:24:56;;;;;;;8.77;6.00;;;;;;;;;;4987674;28;20480;-90
2022/03/08 06:27:23;;;;;;;13.53;7.57;;;;;;;;;;4990696;28;20600;-92
2022/03/08 06:29:54;;;;;;;11.23;6.47;;;;;;;;;;4991407;28;20457;-88
2022/03/08 06:32:21;;;;;;;7.80;6.00;;;;;;;;;;4991787;28;20527;-91
2022/03/08 06:34:50;;;;;;;9.20;7.03;;;;;;;;;;4994194;28;20457;-91
2022/03/08 06:37:18;;;;;;;8.73;6.33;;;;;;;;;;4994219;28;20968;-90
2022/03/08 06:39:46;;;;;;;10.73;8.03;;;-0.80;98.10;;;;;;4993381;28;20484;-91
2022/03/08 06:42:14;;;;;;;14.10;10.50;;;;;;;;;;4991565;28;20453;-93
2022/03/08 06:44:41;;;;;;;9.27;7.67;;;;;;;;;;4995045;28;20453;-89
2022/03/08 06:47:08;;;;;;;11.20;7.60;;;;;;;;;;4991801;28;20527;-92
2022/03/08 06:49:36;;;;;;;7.87;6.70;;;;;;;;;;4991712;28;20457;-91
2022/03/08 06:52:03;;;;;;;11.70;7.67;;;;;;;;;;4994391;28;20995;-91
2022/03/08 06:54:30;;;;;;;12.60;6.67;;;;;;;;;;4994373;28;20465;-90
2022/03/08 06:56:58;;;;;;;9.17;6.10;;;0.80;94.20;;;;;;4995334;28;20446;-93
2022/03/08 06:59:26;;;;;;;8.90;6.93;;;;;;;;;;4992685;28;20493;-90
2022/03/08 07:01:53;;;;;;;9.43;6.63;;;1.30;92.50;;;;;;4996043;28;20928;-88
2022/03/08 07:04:21;;;;;;;9.17;6.60;;;;;;;;;;4991522;28;20457;-92
2022/03/08 07:06:48;;;;;;;7.90;7.10;;;;;;;;;;4918005;29;20468;-89
2022/03/08 07:09:15;;;;;;;8.63;6.17;;;;;;;;;;4918634;29;20821;-91
2022/03/08 07:11:42;;;;;;;11.63;7.53;;;;;;;;;;4921196;29;20463;-90
2022/03/08 07:14:15;;;;;;;6.10;5.20;;;;;;;;;;4924507;29;20456;-87
2022/03/08 07:16:42;;;;;;;9.03;6.60;;;;;;;;;;4924848;29;20445;-91
2022/03/08 07:19:13;;;;;;;11.53;6.20;;;;;;;;;;4916441;29;20496;-85
2022/03/08 07:21:40;;;;;;;9.00;7.10;;;;;;;;;;4916012;29;21032;-92
2022/03/08 07:24:07;;;;;;;7.47;5.73;;;3.10;99.70;;;;;;4928644;28;20452;-89
2022/03/08 07:26:34;;;;;;;8.53;6.73;;;;;;;;;;4956187;29;20439;-94
2022/03/08 07:29:02;;;;;;;7.37;6.13;;;;;;;;;;4957213;29;20470;-89
2022/03/08 07:31:31;;;;;;;8.37;6.60;;;;;;;;;;4957508;29;20461;-90
2022/03/08 07:33:59;;;;;;;7.93;7.13;;;;;;;;;;4959510;29;20542;-93
2022/03/08 07:36:27;;;;;;;7.80;6.87;;;3.40;85.50;;;;;;4963501;28;20510;-91
2022/03/08 07:38:54;;;;;;;10.53;7.20;;;;;;;;;;4962259;29;20498;-92
2022/03/08 07:41:21;;;;;;;9.43;6.83;;;;;;;;;;4967049;29;20487;-94
2022/03/08 07:43:49;;;;;;;7.60;6.17;;;;;;;;;;5001485;23;20518;-93
2022/03/08 07:46:16;;;;;;;8.13;6.27;;;;;;;;;;5022734;28;20942;-95
2022/03/08 07:48:45;;;;;;;7.57;5.77;;;;;;;;;;5019716;28;20449;-93
2022/03/08 07:51:27;;;;;;;9.90;5.83;;;4.70;82.30;;;;;;5014697;28;20476;-94
2022/03/08 07:54:02;;;;;;;7.00;6.30;;;;;;;;;;5018402;28;20444;-94
2022/03/08 07:56:30;;;;;;;7.80;6.20;;;;;;;;;;5018132;28;20428;-92
2022/03/08 07:58:57;;;;;;;6.47;4.43;;;;;;;;;;5022637;28;21003;-93
2022/03/08 08:01:24;;;;;;;8.33;6.10;;;;;;;;;;5017609;28;20447;-94
2022/03/08 08:03:56;;;;;;;8.27;6.57;;;;;;;;;;5019298;28;20462;-91
2022/03/08 08:06:23;;;;;;;9.03;7.00;;;;;;;;;;5016332;28;20825;-92
2022/03/08 08:08:50;;;;;;;10.53;7.00;;;;;;;;;;5016458;28;20494;-91
2022/03/08 08:11:17;;;;;;;11.57;7.60;;;;;;;;;;5021340;28;20959;-94
2022/03/08 08:13:45;;;;;;;9.83;7.20;;;;;;;;;;5021175;28;20433;-92
2022/03/08 08:16:12;;;;;;;8.37;7.30;;;;;;;;;;5017944;28;20429;-92
2022/03/08 08:18:39;;;;;;;9.13;7.27;;;;;;;;;;5017928;28;20492;-92
2022/03/08 08:21:07;;;;;;;8.70;7.17;;;6.30;77.20;;;;;;5017817;28;20475;-94
2022/03/08 08:23:34;;;;;;;8.30;6.87;;;;;;;;;;5009462;28;20441;-94
2022/03/08 08:26:01;;;;;;;9.27;6.47;;;;;;;;;;5011441;28;20441;-93
2022/03/08 08:28:29;;;;;;;11.90;7.50;;;;;;;;;;5014111;28;20522;-92
2022/03/08 08:30:56;;;;;;;7.47;6.77;;;;;;;;;;5013502;28;20445;-92
2022/03/08 08:33:23;;;;;;;8.27;6.77;;;;;;;;;;5017446;28;20455;-91
2022/03/08 08:35:50;;;;;;;7.40;6.70;;;;;;;;;;5013568;28;20448;-92
2022/03/08 08:38:19;;;;;;;8.07;6.80;;;;;;;;;;5013510;28;20499;-95
2022/03/08 08:40:46;;;;;;;7.87;7.07;;;;;;;;;;5015459;28;20448;-92
2022/03/08 08:43:13;;;;;;;8.03;7.23;;;;;;;;;;5016426;28;20483;-93
2022/03/08 08:45:40;;;;;;;9.80;6.73;;;;;;;;;;5010991;28;20500;-91
2022/03/08 08:48:08;;;;;;;7.80;7.00;;;7.70;73.80;;;;;;5013342;28;20452;-94
2022/03/08 08:50:35;;;;;;;7.70;6.50;;;;;;;;;;5013334;28;20464;-93
2022/03/08 08:53:02;;;;;;;9.13;7.40;;;;;;;;;;5014297;28;20524;-93
2022/03/08 08:55:31;;;;;;;9.87;6.80;;;;;;;;;;5015198;28;20464;-93
2022/03/08 08:57:58;;;;;;;8.70;6.80;;;;;;;;;;5013354;28;20445;-91
2022/03/08 09:00:25;;;;;;;8.00;7.20;;;;;;;;;;5031112;28;20463;-93
2022/03/08 09:02:53;;;;;;;8.37;6.13;;;;;;;;;;5022083;28;20461;-95
2022/03/08 09:05:20;;;;;;;9.73;6.60;;;;;;;;;;5012884;28;20940;-91
2022/03/08 09:07:50;;;;;;;11.13;6.00;;;;;;;;;;5012941;28;20448;-94
2022/03/08 09:10:19;;;;;;;8.53;7.33;;;;;;;;;;5011784;28;20448;-96
2022/03/08 09:12:50;;;;;;;9.63;7.17;;;;;;;;;;5015886;28;20499;-94
2022/03/08 09:15:17;;;;;;;7.30;6.50;;;;;;;;;;5015911;28;20544;-92
2022/03/08 09:17:44;;;;;;;11.20;7.30;;;;;;;;;;5013216;28;20486;-91
2022/03/08 09:20:12;;;;;;;8.93;6.57;;;;;;;;;;5015779;28;20960;-92
2022/03/08 09:22:40;;;;;;;10.17;6.40;;;;;;;;;;5012853;28;20452;-94
2022/03/08 09:25:08;;;;;;;6.20;5.07;;;8.10;66.40;;;;;;5014789;28;20952;-89
2022/03/08 09:27:35;;;;;;;8.37;6.33;;;8.60;66.70;;;;;;5012754;28;20499;-91
2022/03/08 09:30:04;;;;;;;9.23;6.23;;;8.90;65.70;;;;;;5015843;28;20456;-92
2022/03/08 09:32:32;;;;;;;8.63;6.33;;;;;;;;;;5006055;28;20452;-90
2022/03/08 09:34:59;;;;;;;7.43;5.53;;;;;;;;;;5015154;28;20452;-94
2022/03/08 09:37:26;;;;;;;8.63;5.80;;;;;;;;;;5015989;28;20539;-94
2022/03/08 09:39:53;;;;;;;7.37;6.23;;;;;;;;;;5014528;28;20483;-93
2022/03/08 09:42:21;;;;;;;8.27;5.93;;;7.90;65.90;;;;;;5015835;28;20460;-93
2022/03/08 09:44:49;;;;;;;5.93;4.83;;;;;;;;;;5013271;28;21026;-91
2022/03/08 09:47:18;;;;;;;5.50;5.00;;;;;;;;;;5012566;28;20444;-93
2022/03/08 09:49:45;;;;;;;6.00;5.17;;;;;;;;;;5012179;28;20595;-93
2022/03/08 09:52:13;;;;;;;10.77;5.97;;;;;;;;;;5013679;28;20461;-92
2022/03/08 09:54:42;;;;;;;7.43;5.27;;;8.60;63.00;;;;;;5011433;28;20853;-91
2022/03/08 09:57:10;;;;;;;5.00;4.13;;;;;;;;;;5013437;28;20459;-93
2022/03/08 09:59:37;;;;;;;6.53;5.10;;;;;;;;;;5010832;28;20503;-94
2022/03/08 10:02:04;;;;;;;5.63;4.23;;;;;;;;;;5013985;28;20456;-91
2022/03/08 10:04:33;;;;;;;6.30;5.40;;;;;;;;;;5013813;28;20467;-93
2022/03/08 10:07:00;;;;;;;6.00;5.40;;;;;;;;;;5015231;28;20448;-91
2022/03/08 10:09:27;;;;;;;5.20;4.70;;;;;;;;;;5013161;28;20463;-91
2022/03/08 10:11:56;;;;;;;7.10;5.10;;;9.40;60.60;;;;;;5010637;28;20444;-91
2022/03/08 10:14:36;;;;;;;5.90;5.13;;;9.50;63.20;;;;;;5009465;28;20945;-92
2022/03/08 10:17:03;;;;;;;7.53;4.70;;;;;;;;;;4967624;28;20975;-89
2022/03/08 10:19:30;;;;;;;6.03;4.60;;;;;;;;;;5017491;28;20515;-89
2022/03/08 10:21:59;;;;;;;7.10;5.47;;;;;;;;;;5016984;28;20488;-92
2022/03/08 10:24:28;;;;;;;6.43;5.70;;;9.60;59.40;;;;;;5015982;28;20472;-89
2022/03/08 10:26:57;;;;;;;8.43;5.70;;;10.00;57.90;;;;;;5006948;28;20453;-89
2022/03/08 10:29:27;;;;;;;5.60;4.80;;;10.30;57.40;;;;;;5008033;28;20445;-89
2022/03/08 10:32:09;;;;;;;8.53;6.27;;;9.50;58.40;;;;;;5013387;28;20460;-88
2022/03/08 10:34:37;;;;;;;7.27;5.40;;;9.70;57.30;;;;;;5009227;28;20503;-87
2022/03/08 10:37:10;;;;;;;6.30;4.90;;;10.30;56.60;;;;;;5014097;28;20452;-89
2022/03/08 10:39:48;;;;;;;6.30;5.40;;;10.50;55.90;;;;;;5010586;28;20491;-91
2022/03/08 10:42:20;;;;;;;6.70;5.40;;;9.70;56.60;;;;;;5014762;28;20502;-89
2022/03/08 10:44:48;;;;;;;7.67;5.50;;;10.50;56.10;;;;;;5011822;28;20487;-89
2022/03/08 10:47:16;;;;;;;6.20;4.80;;;10.40;56.00;;;;;;5014692;28;20453;-89
2022/03/08 10:49:51;;;;;;;6.83;5.10;;;10.90;58.60;;;;;;5014708;28;20468;-90
2022/03/08 10:52:27;;;;;;;8.80;5.23;;;11.50;55.00;;;;;;5016783;28;20444;-89
2022/03/08 10:54:55;;;;;;;6.77;5.23;;;;;;;;;;5016932;28;20797;-91
2022/03/08 10:57:22;;;;;;;7.30;5.73;;;;;;;;;;5014596;28;20484;-88
2022/03/08 10:59:56;;;;;;;6.83;4.27;;;10.40;53.10;;;;;;5014480;28;20492;-87
2022/03/08 11:02:23;;;;;;;6.97;4.70;;;10.20;53.30;;;;;;5009242;28;20448;-88
2022/03/08 11:05:08;;;;;;;5.10;4.20;;;10.10;52.90;;;;;;5006435;28;21103;-87
2022/03/08 11:07:36;;;;;;;7.93;5.30;;;;;;;;;;5014366;28;20448;-89
2022/03/08 11:10:04;;;;;;;6.40;5.17;;;10.30;52.70;;;;;;5012952;28;20483;-92
2022/03/08 11:12:31;;;;;;;8.67;6.10;;;;;;;;;;5006111;28;20448;-91
2022/03/08 11:14:58;;;;;;;5.70;4.57;;;;;;;;;;5018681;28;20429;-89
2022/03/08 11:17:26;;;;;;;7.40;4.10;;;;;;;;;;5006515;28;20441;-91
2022/03/08 11:19:53;;;;;;;7.27;5.60;;;;;;;;;;5016010;28;20487;-88
2022/03/08 11:22:21;;;;;;;6.80;5.17;;;10.60;50.70;;;;;;5002054;28;20445;-89
2022/03/08 11:24:50;;;;;;;6.20;4.93;;;10.60;49.80;;;;;;4998244;28;20797;-89
2022/03/08 11:27:18;;;;;;;5.77;4.93;;;;;;;;;;4999413;28;20521;-90
2022/03/08 11:29:45;;;;;;;7.37;5.50;;;;;;;;;;4996054;28;20461;-89
2022/03/08 11:32:17;;;;;;;6.23;4.77;;;11.60;49.80;;;;;;4996189;28;20451;-91
2022/03/08 11:34:47;;;;;;;7.60;4.93;;;;;;;;;;5019448;28;20461;-91
2022/03/08 11:37:19;;;;;;;5.17;4.40;;;10.70;49.80;;;;;;5022201;28;20427;-91
2022/03/08 11:40:07;;;;;;;6.23;5.00;;;10.50;50.30;;;;;;4977571;28;20477;-93
2022/03/08 11:42:36;;;;;;;7.63;5.03;;;;;;;;;;4974614;28;20930;-91
2022/03/08 11:45:06;;;;;;;5.27;4.60;;;11.00;50.50;;;;;;4978035;28;20458;-93
2022/03/08 11:47:38;;;;;;;9.17;5.17;;;11.30;50.30;;;;;;4986663;28;20508;-91
2022/03/08 11:50:06;;;;;;;5.60;4.50;;;11.20;49.80;;;;;;4994012;28;20477;-95
2022/03/08 11:52:36;;;;;;;6.53;5.13;;;11.50;49.80;;;;;;5000647;28;20461;-92
2022/03/08 11:55:08;;;;;;;8.87;4.80;;;11.50;48.50;;;;;;4994312;28;20548;-92
2022/03/08 11:57:58;;;;;;;5.30;4.80;;;11.30;48.50;;;;;;4996751;28;20461;-93
2022/03/08 12:03:12;;;;;;;7.50;5.07;;;11.10;49.10;;;;;;5009626;28;20490;-92
2022/03/08 12:05:49;;;;;;;9.63;6.07;;;11.00;48.80;;;;;;5002464;28;20437;-93
2022/03/08 12:08:43;;;;;;;6.43;4.50;;;11.00;49.10;;;;;;4981339;28;20449;-91
2022/03/08 12:11:33;;;;;;;6.47;5.00;;;11.30;47.50;;;;;;4986277;28;20553;-91
2022/03/08 12:14:02;;;;;;;5.27;4.60;;;;;;;;;;4991144;28;20449;-92
2022/03/08 12:16:30;;;;;;;7.40;4.80;;;;;;;;;;4995087;28;20454;-92
2022/03/08 12:18:58;;;;;;;8.13;4.70;;;;;;;;;;4982238;28;20450;-92
2022/03/08 12:21:33;;;;;;;7.37;4.20;;;;;;;;;;4985938;28;20458;-91
2022/03/08 12:24:06;;;;;;;7.43;4.80;;;11.10;48.10;;;;;;4985613;28;20441;-91
2022/03/08 12:26:36;;;;;;;6.10;5.50;;;;;;;;;;4993436;28;20456;-92
2022/03/08 12:29:04;;;;;;;7.23;5.00;;;;;;;;;;5007231;28;20500;-93
2022/03/08 12:31:31;;;;;;;7.07;5.37;;;;;;;;;;5005713;28;20468;-93
2022/03/08 12:34:02;;;;;;;7.70;5.10;;;;;;;;;;5000331;28;20453;-93
2022/03/08 12:36:29;;;;;;;9.60;4.70;;;;;;;;;;4998268;28;20456;-93
2022/03/08 12:38:57;;;;;;;8.13;5.63;;;;;;;;;;5005903;28;20441;-93
2022/03/08 12:41:28;;;;;;;8.67;6.63;;;12.00;47.50;;;;;;5002106;28;20453;-90
2022/03/08 12:44:02;;;;;;;6.90;5.97;;;11.80;47.50;;;;;;5002921;28;20481;-91
2022/03/08 12:46:29;;;;;;;6.10;4.90;;;;;;;;;;5001864;28;20456;-87
2022/03/08 12:48:57;;;;;;;7.10;5.43;;;;;;;;;;5003321;28;20481;-90
2022/03/08 12:51:25;;;;;;;6.57;5.47;;;10.90;48.10;;;;;;5001783;28;20445;-92
2022/03/08 12:53:57;;;;;;;8.83;5.30;;;10.90;47.70;;;;;;5005411;28;20441;-89
2022/03/08 12:56:26;;;;;;;6.60;5.90;;;10.40;48.70;;;;;;5001632;28;20449;-87
2022/03/08 12:59:05;;;;;;;5.93;4.57;;;10.40;47.00;;;;;;4998941;28;20484;-90
2022/03/08 13:01:32;;;;;;;7.47;4.80;;;;;;;;;;5005452;28;20457;-90
2022/03/08 13:04:00;;;;;;;7.20;5.90;;;;;;;;;;5006077;28;20457;-91
2022/03/08 13:06:29;;;;;;;6.87;5.90;;;;;;;;;;5003864;28;20495;-92
2022/03/08 13:09:05;;;;;;;6.43;5.40;;;11.30;47.20;;;;;;5002942;28;20857;-92
2022/03/08 13:11:36;;;;;;;8.07;5.70;;;;;;;;;;5002062;28;20465;-92
2022/03/08 13:14:20;;;;;;;6.57;5.90;;;;;;;;;;5003547;28;20545;-91
2022/03/08 13:16:48;;;;;;;11.83;6.80;;;;;;;;;;5004118;28;20465;-92
2022/03/08 13:19:16;;;;;;;6.40;5.63;;;;;;;;;;5005212;28;20460;-91
2022/03/08 13:21:43;;;;;;;8.63;6.03;;;;;;;;;;5003687;28;20464;-89
2022/03/08 13:24:12;;;;;;;9.60;7.00;;;11.50;47.70;;;;;;5006338;28;20453;-91
2022/03/08 13:26:58;;;;;;;7.73;6.27;;;11.30;47.50;;;;;;5005398;28;20449;-91
2022/03/08 13:29:27;;;;;;;8.13;5.47;;;;;;;;;;5005725;28;20456;-92
2022/03/08 13:31:54;;;;;;;7.50;6.70;;;;;;;;;;5005143;28;20461;-91
2022/03/08 13:34:22;;;;;;;7.90;6.00;;;;;;;;;;4999898;28;20465;-90
2022/03/08 13:36:58;;;;;;;7.13;6.10;;;11.60;47.50;;;;;;5000346;28;20976;-94
2022/03/08 13:39:25;;;;;;;4.90;3.50;;;;;;;;;;4993335;28;20463;-93
2022/03/08 13:41:54;;;;;;;9.03;6.57;;;11.40;48.80;;;;;;5000370;28;20941;-91
2022/03/08 13:44:22;;;;;;;9.20;6.70;;;;;;;;;;4994436;28;20515;-90
2022/03/08 13:46:50;;;;;;;6.97;6.27;;;12.20;47.30;;;;;;4995552;28;21035;-91
2022/03/08 13:49:23;;;;;;;7.00;5.73;;;11.90;46.90;;;;;;4994024;28;20977;-92
2022/03/08 13:51:50;;;;;;;7.17;5.60;;;;;;;;;;4999039;28;20460;-89
2022/03/08 13:54:17;;;;;;;9.73;6.13;;;;;;;;;;4995352;28;20469;-90
2022/03/08 13:56:46;;;;;;;6.70;4.77;;;11.70;47.00;;;;;;4992500;28;20441;-92
2022/03/08 13:59:25;;;;;;;8.20;5.80;;;11.70;45.70;;;;;;4997618;28;20449;-93
2022/03/08 14:02:00;;;;;;;6.13;4.90;;;;;;;;;;4996939;28;20843;-92
2022/03/08 14:04:27;;;;;;;5.67;5.07;;;;;;;;;;5016380;28;20787;-93
2022/03/08 14:06:55;;;;;;;6.63;5.30;;;12.50;45.00;;;;;;5013392;28;20479;-93
2022/03/08 14:09:22;;;;;;;6.90;5.50;;;;;;;;;;5010233;28;20807;-92